Terminal Aerodrome Forecast
Issued by NWS

Home | Current Version | Previous Version | Text Only | Print | Product List | Glossary On
Versions: 1 2 3 4 5 6 7 8 9 10 11 12 13 14 15 16
000
FTUS41 KPHI 281739
TAFPNE
TAF
KPNE 281739Z 2818/2918 09012G18KT P6SM VCSH BKN030 OVC070
      TEMPO 2818/2822 5SM -SHRA BKN025
     FM282200 07014G20KT 6SM -DZ OVC015
     FM290200 06011G18KT 5SM -RADZ BKN009 OVC020
     FM290400 07012G20KT 5SM -RADZ BKN007 OVC020
     FM291400 08013G25KT 6SM -RADZ OVC012=

USA.gov is the U.S. government's official web portal to all federal, state and local government web resources and services.